createdAt,value
2023-05-10T00:00:06.974Z,2.60
2023-05-10T00:02:46.488Z,2.65
2023-05-10T00:05:31.040Z,2.42
2023-05-10T00:08:10.305Z,2.32
2023-05-10T00:10:49.600Z,2.35
2023-05-10T00:13:29.612Z,2.36
2023-05-10T00:16:08.947Z,2.35
2023-05-10T00:18:48.509Z,2.24
2023-05-10T00:21:33.797Z,2.60
2023-05-10T00:24:13.832Z,2.61
2023-05-10T00:26:53.099Z,3.09
2023-05-10T00:29:32.438Z,2.87
2023-05-10T00:32:12.380Z,2.98
2023-05-10T00:34:51.730Z,2.73
2023-05-10T00:37:36.120Z,2.85
2023-05-10T00:40:16.504Z,2.74
2023-05-10T00:42:55.979Z,2.61
2023-05-10T00:45:35.349Z,2.19
2023-05-10T00:48:14.802Z,2.27
2023-05-10T00:50:54.236Z,1.75
2023-05-10T00:53:40.252Z,1.61
2023-05-10T00:56:19.838Z,1.34
2023-05-10T00:58:59.258Z,1.15
2023-05-10T01:01:39.411Z,1.19
2023-05-10T01:04:22.265Z,1.18
2023-05-10T01:07:01.695Z,1.25
2023-05-10T01:09:46.185Z,1.00
2023-05-10T01:12:25.735Z,0.92
2023-05-10T01:15:06.069Z,0.71
2023-05-10T01:17:48.906Z,0.62
2023-05-10T01:20:28.305Z,0.68
2023-05-10T01:23:33.893Z,0.60
2023-05-10T01:26:47.792Z,0.69
2023-05-10T01:30:19.286Z,0.59
2023-05-10T01:33:13.326Z,0.69
2023-05-10T01:36:01.438Z,0.56
2023-05-10T01:38:52.406Z,0.59
2023-05-10T01:41:41.209Z,0.60
2023-05-10T01:44:28.839Z,0.48
2023-05-10T01:47:15.629Z,0.67
2023-05-10T01:50:03.476Z,0.71
2023-05-10T01:52:50.996Z,0.71
2023-05-10T01:55:38.601Z,0.71
2023-05-10T01:58:23.994Z,0.63
2023-05-10T02:01:06.357Z,0.53
2023-05-10T02:03:48.617Z,0.54
2023-05-10T02:06:35.830Z,0.54
2023-05-10T02:09:17.323Z,0.60
2023-05-10T02:11:58.948Z,0.61
2023-05-10T02:14:42.427Z,0.56
2023-05-10T02:17:23.245Z,0.52
2023-05-10T02:20:06.067Z,0.53
2023-05-10T02:22:53.245Z,0.56
2023-05-10T02:25:34.415Z,0.49
2023-05-10T02:28:16.200Z,0.59
2023-05-10T02:30:56.751Z,0.48
2023-05-10T02:33:39.887Z,0.48
2023-05-10T02:36:22.095Z,0.52
2023-05-10T02:39:12.215Z,0.55
2023-05-10T02:41:54.997Z,0.47
2023-05-10T02:44:38.419Z,0.53
2023-05-10T02:47:17.872Z,0.55
2023-05-10T02:49:57.555Z,0.57
2023-05-10T02:52:48.812Z,0.60
2023-05-10T02:55:43.736Z,0.66
2023-05-10T02:58:23.351Z,0.65
2023-05-10T03:01:02.745Z,0.61
2023-05-10T03:03:42.110Z,0.67
2023-05-10T03:06:21.354Z,0.87
2023-05-10T03:09:00.865Z,0.74
2023-05-10T03:11:56.022Z,0.72
2023-05-10T03:14:51.139Z,0.73
2023-05-10T03:17:38.608Z,0.73
2023-05-10T03:20:21.182Z,0.75
2023-05-10T03:23:08.760Z,0.65
2023-05-10T03:25:51.121Z,0.70
2023-05-10T03:28:36.057Z,0.80
2023-05-10T03:31:16.153Z,0.85
2023-05-10T03:33:56.008Z,0.78
2023-05-10T03:36:35.345Z,0.86
2023-05-10T03:39:14.688Z,0.85
2023-05-10T03:41:53.963Z,0.85
2023-05-10T03:44:39.448Z,0.76
2023-05-10T03:47:18.833Z,0.88
2023-05-10T03:49:58.148Z,0.89
2023-05-10T03:52:37.428Z,0.98
2023-05-10T03:55:17.278Z,0.88
2023-05-10T03:57:56.876Z,0.90
2023-05-10T04:00:45.847Z,0.94
2023-05-10T04:03:25.423Z,1.02
2023-05-10T04:06:09.306Z,0.90
2023-05-10T04:08:48.638Z,0.99
2023-05-10T04:11:27.972Z,1.13
2023-05-10T04:14:09.218Z,1.17
2023-05-10T04:19:37.856Z,1.22
2023-05-10T04:22:17.342Z,1.31
2023-05-10T04:24:56.805Z,1.11
2023-05-10T04:27:36.096Z,1.18
2023-05-10T04:30:16.777Z,1.29
2023-05-10T04:33:01.452Z,1.39
2023-05-10T04:35:42.194Z,1.53
2023-05-10T04:38:21.470Z,1.24
2023-05-10T04:41:01.073Z,1.37
2023-05-10T04:43:40.478Z,1.48
2023-05-10T04:46:19.943Z,1.44
2023-05-10T04:49:04.368Z,1.32
2023-05-10T04:51:43.721Z,1.21
2023-05-10T04:54:23.055Z,1.45
2023-05-10T04:57:02.409Z,1.31
2023-05-10T04:59:44.727Z,1.32
2023-05-10T05:02:24.184Z,1.47
2023-05-10T05:05:09.535Z,1.32
2023-05-10T05:07:48.882Z,1.42
2023-05-10T05:10:28.282Z,1.43
2023-05-10T05:13:07.804Z,1.37
2023-05-10T05:15:47.188Z,1.50
2023-05-10T05:18:26.536Z,1.36
2023-05-10T05:21:11.212Z,1.37
2023-05-10T05:23:50.622Z,1.51
2023-05-10T05:26:30.000Z,1.51
2023-05-10T05:29:09.486Z,1.59
2023-05-10T05:31:48.895Z,1.66
2023-05-10T05:34:28.256Z,1.73
2023-05-10T05:37:12.710Z,1.69
2023-05-10T05:39:52.549Z,1.66
2023-05-10T05:42:31.894Z,1.68
2023-05-10T05:45:15.155Z,1.90
2023-05-10T05:47:54.694Z,1.75
2023-05-10T05:50:34.062Z,1.70
2023-05-10T05:53:18.599Z,2.13
2023-05-10T05:56:01.541Z,2.09
2023-05-10T05:58:40.865Z,1.85
2023-05-10T06:01:20.225Z,2.21
2023-05-10T06:03:59.770Z,2.26
2023-05-10T06:06:39.645Z,2.18
2023-05-10T06:09:25.977Z,1.95
2023-05-10T06:12:05.569Z,2.10
2023-05-10T06:14:44.867Z,2.21
2023-05-10T06:17:24.464Z,2.28
2023-05-10T06:20:03.820Z,2.27
2023-05-10T06:22:43.166Z,2.15
2023-05-10T06:25:27.583Z,2.43
2023-05-10T06:28:06.893Z,2.24
2023-05-10T06:30:46.724Z,2.30
2023-05-10T06:33:26.005Z,2.50
2023-05-10T06:36:05.377Z,2.33
2023-05-10T06:38:44.689Z,2.49
2023-05-10T06:41:29.199Z,2.48
2023-05-10T06:44:08.485Z,2.42
2023-05-10T06:46:47.902Z,2.47
2023-05-10T06:49:27.252Z,2.50
2023-05-10T06:52:06.649Z,2.65
2023-05-10T06:54:46.409Z,2.55
2023-05-10T06:57:32.228Z,2.40
2023-05-10T07:00:13.318Z,2.70
2023-05-10T07:02:53.297Z,2.74
2023-05-10T07:05:32.824Z,2.41
2023-05-10T07:08:12.628Z,2.49
2023-05-10T07:10:51.899Z,2.61
2023-05-10T07:13:36.331Z,2.45
2023-05-10T07:16:15.798Z,2.38
2023-05-10T07:18:55.790Z,2.31
2023-05-10T07:21:35.702Z,2.39
2023-05-10T07:24:15.208Z,2.38
2023-05-10T07:26:54.679Z,2.40
2023-05-10T07:29:39.553Z,2.28
2023-05-10T07:32:19.034Z,2.24
2023-05-10T07:34:58.486Z,2.25
2023-05-10T07:37:38.167Z,2.31
2023-05-10T07:40:18.377Z,2.25
2023-05-10T07:42:57.859Z,2.07
2023-05-10T07:45:42.564Z,2.36
2023-05-10T07:48:22.046Z,2.35
2023-05-10T07:51:01.341Z,2.48
2023-05-10T07:53:40.694Z,2.44
2023-05-10T07:56:31.785Z,2.42
2023-05-10T07:59:12.888Z,2.48
2023-05-10T08:01:58.240Z,2.36
2023-05-10T08:04:37.623Z,2.39
2023-05-10T08:07:17.046Z,2.47
2023-05-10T08:09:56.336Z,2.55
2023-05-10T08:12:35.729Z,2.53
2023-05-10T08:15:16.773Z,2.53
2023-05-10T08:18:01.372Z,2.30
2023-05-10T08:20:40.741Z,2.56
2023-05-10T08:23:21.061Z,2.45
2023-05-10T08:26:00.344Z,2.30
2023-05-10T08:28:39.769Z,2.59
2023-05-10T08:31:20.250Z,2.38
2023-05-10T08:34:04.665Z,2.40
2023-05-10T08:36:44.043Z,2.44
2023-05-10T08:39:30.492Z,2.62
2023-05-10T08:42:12.845Z,2.55
2023-05-10T08:44:53.292Z,2.48
2023-05-10T08:47:34.039Z,2.44
2023-05-10T08:50:20.006Z,2.51
2023-05-10T08:53:03.909Z,2.30
2023-05-10T08:55:44.882Z,2.59
2023-05-10T08:58:24.215Z,2.49
2023-05-10T09:01:05.386Z,2.55
2023-05-10T09:03:47.510Z,2.37
2023-05-10T09:06:34.382Z,2.38
2023-05-10T09:09:17.121Z,2.56
2023-05-10T09:11:57.171Z,2.43
2023-05-10T09:14:37.723Z,2.46
2023-05-10T09:17:18.708Z,2.26
2023-05-10T09:19:58.134Z,2.20
2023-05-10T09:22:43.313Z,2.42
2023-05-10T09:25:24.924Z,2.01
2023-05-10T09:28:04.252Z,2.27
2023-05-10T09:30:45.211Z,2.13
2023-05-10T09:33:26.534Z,2.11
2023-05-10T09:36:15.598Z,2.21
2023-05-10T09:39:00.922Z,2.26
2023-05-10T09:41:41.748Z,2.12
2023-05-10T09:44:26.275Z,2.28
2023-05-10T09:47:05.592Z,2.27
2023-05-10T09:49:44.885Z,2.41
2023-05-10T09:52:24.190Z,2.25
2023-05-10T09:55:08.621Z,2.18
2023-05-10T09:57:48.388Z,2.24
2023-05-10T10:00:28.471Z,2.33
2023-05-10T10:03:09.007Z,2.12
2023-05-10T10:05:49.924Z,2.17
2023-05-10T10:08:29.461Z,1.98
2023-05-10T10:11:13.979Z,2.15
2023-05-10T10:13:53.372Z,2.08
2023-05-10T10:16:33.515Z,2.16
2023-05-10T10:19:14.610Z,1.92
2023-05-10T10:21:53.900Z,2.12
2023-05-10T10:24:33.196Z,1.94
2023-05-10T10:27:34.930Z,2.03
2023-05-10T10:30:29.014Z,2.00
2023-05-10T10:33:28.768Z,1.81
2023-05-10T10:36:11.704Z,1.82
2023-05-10T10:39:07.296Z,2.10
2023-05-10T10:41:48.564Z,1.88
2023-05-10T10:44:49.111Z,1.86
2023-05-10T10:47:39.431Z,2.01
2023-05-10T10:50:19.214Z,1.89
2023-05-10T10:52:59.370Z,1.93
2023-05-10T10:55:38.678Z,1.89
2023-05-10T10:58:18.037Z,1.97
2023-05-10T11:01:18.981Z,1.96
2023-05-10T11:04:26.302Z,2.05
2023-05-10T11:07:27.172Z,1.80
2023-05-10T11:10:12.888Z,1.82
2023-05-10T11:13:03.017Z,1.67
2023-05-10T11:15:44.129Z,1.78
2023-05-10T11:18:33.690Z,1.71
2023-05-10T11:21:13.169Z,1.54
2023-05-10T11:24:00.920Z,1.70
2023-05-10T11:26:42.671Z,1.85
2023-05-10T11:29:22.391Z,1.97
2023-05-10T11:32:10.268Z,1.76
2023-05-10T11:34:56.075Z,1.66
2023-05-10T11:37:37.630Z,1.88
2023-05-10T11:40:17.972Z,1.73
2023-05-10T11:42:57.485Z,1.68
2023-05-10T11:45:37.108Z,1.56
2023-05-10T11:48:16.548Z,1.50
2023-05-10T11:51:01.044Z,1.58
2023-05-10T11:53:41.370Z,1.35
2023-05-10T11:56:20.770Z,1.43
2023-05-10T11:59:04.794Z,1.40
2023-05-10T12:01:45.383Z,1.46
2023-05-10T12:04:25.136Z,1.25
2023-05-10T12:07:09.851Z,1.36
2023-05-10T12:09:51.458Z,1.61
2023-05-10T12:12:30.851Z,1.38
2023-05-10T12:15:10.818Z,1.40
2023-05-10T12:17:52.582Z,1.72
2023-05-10T12:20:35.684Z,1.89
2023-05-10T12:23:22.423Z,1.85
2023-05-10T12:26:02.998Z,1.52
2023-05-10T12:28:42.570Z,1.80
2023-05-10T12:31:21.936Z,1.74
2023-05-10T12:34:01.243Z,1.54
2023-05-10T12:36:40.554Z,1.54
2023-05-10T12:39:25.302Z,1.47
2023-05-10T12:42:05.043Z,1.58
2023-05-10T12:44:44.715Z,2.07
2023-05-10T12:47:24.063Z,2.47
2023-05-10T12:50:03.449Z,2.63
2023-05-10T12:52:43.025Z,2.25
2023-05-10T12:55:27.423Z,2.03
2023-05-10T12:58:06.959Z,1.71
2023-05-10T13:00:46.479Z,1.67
2023-05-10T13:03:26.010Z,1.99
2023-05-10T13:06:05.402Z,2.12
2023-05-10T13:08:44.735Z,2.32
2023-05-10T13:11:29.345Z,2.27
2023-05-10T13:14:08.600Z,1.91
2023-05-10T13:16:47.942Z,1.94
2023-05-10T13:19:27.537Z,2.08
2023-05-10T13:22:07.034Z,1.84
2023-05-10T13:24:46.355Z,1.88
2023-05-10T13:27:30.963Z,2.00
2023-05-10T13:30:10.625Z,1.79
2023-05-10T13:32:49.967Z,2.85
2023-05-10T13:35:29.777Z,4.50
2023-05-10T13:38:10.136Z,3.77
2023-05-10T13:40:49.411Z,2.65
2023-05-10T13:43:33.821Z,2.39
2023-05-10T13:46:13.236Z,2.31
2023-05-10T13:48:56.042Z,2.04
2023-05-10T13:51:35.542Z,2.07
2023-05-10T13:54:14.877Z,2.84
2023-05-10T13:56:54.628Z,2.00
2023-05-10T13:59:39.674Z,2.28
2023-05-10T14:02:19.435Z,2.61
2023-05-10T14:04:58.781Z,2.28
2023-05-10T14:07:38.108Z,3.15
2023-05-10T14:10:18.127Z,3.23
2023-05-10T14:12:58.784Z,2.41
2023-05-10T14:15:43.232Z,2.09
2023-05-10T14:18:22.829Z,2.39
2023-05-10T14:21:02.443Z,2.01
2023-05-10T14:23:41.818Z,1.95
2023-05-10T14:26:21.152Z,2.06
2023-05-10T14:29:01.065Z,2.26
2023-05-10T14:31:45.529Z,2.12
2023-05-10T14:34:24.883Z,1.96
2023-05-10T14:37:04.366Z,1.70
2023-05-10T14:39:44.628Z,2.19
2023-05-10T14:42:24.023Z,1.65
2023-05-10T14:45:03.412Z,1.62
2023-05-10T14:47:47.854Z,1.43
2023-05-10T14:50:36.422Z,1.50
2023-05-10T14:53:16.500Z,1.46
2023-05-10T14:55:55.771Z,1.62
2023-05-10T14:58:35.446Z,1.40
2023-05-10T15:01:14.872Z,1.57
2023-05-10T15:03:59.724Z,1.56
2023-05-10T15:06:40.453Z,1.67
2023-05-10T15:09:19.752Z,1.71
2023-05-10T15:11:59.194Z,1.81
2023-05-10T15:14:38.928Z,1.73
2023-05-10T15:17:18.729Z,1.74
2023-05-10T15:20:04.741Z,2.00
2023-05-10T15:22:44.152Z,1.68
2023-05-10T15:25:23.461Z,1.86
2023-05-10T15:28:02.901Z,1.85
2023-05-10T15:30:42.238Z,1.86
2023-05-10T15:33:21.532Z,1.95
2023-05-10T15:36:06.391Z,1.92
2023-05-10T15:38:45.716Z,1.88
2023-05-10T15:41:25.017Z,1.85
2023-05-10T15:44:04.348Z,1.71
2023-05-10T15:46:43.675Z,1.75
2023-05-10T15:49:23.076Z,1.91
2023-05-10T15:52:07.630Z,1.62
2023-05-10T15:54:47.514Z,1.72
2023-05-10T15:57:26.768Z,1.53
2023-05-10T16:00:06.763Z,1.58
2023-05-10T16:02:46.380Z,1.79
2023-05-10T16:05:26.001Z,1.70
2023-05-10T16:08:10.386Z,1.70
2023-05-10T16:10:49.736Z,1.99
2023-05-10T16:13:29.115Z,1.80
2023-05-10T16:16:09.947Z,1.73
2023-05-10T16:18:49.565Z,1.80
2023-05-10T16:21:28.984Z,1.81
2023-05-10T16:24:13.846Z,1.92
2023-05-10T16:26:53.553Z,1.74
2023-05-10T16:29:33.242Z,1.73
2023-05-10T16:32:13.059Z,1.99
2023-05-10T16:34:52.308Z,1.93
2023-05-10T16:37:31.626Z,1.65
2023-05-10T16:40:17.487Z,1.84
2023-05-10T16:42:56.905Z,1.99
2023-05-10T16:45:38.764Z,2.07
2023-05-10T16:48:18.281Z,1.99
2023-05-10T16:50:57.632Z,2.07
2023-05-10T16:53:37.450Z,1.92
2023-05-10T16:56:23.077Z,1.96
2023-05-10T16:59:02.501Z,1.94
2023-05-10T17:01:41.901Z,2.15
2023-05-10T17:04:21.336Z,2.11
2023-05-10T17:07:00.709Z,2.77
2023-05-10T17:09:40.003Z,2.12
2023-05-10T17:12:24.386Z,2.01
2023-05-10T17:15:03.835Z,1.73
2023-05-10T17:17:43.219Z,1.75
2023-05-10T17:20:22.688Z,1.84
2023-05-10T17:23:03.851Z,1.76
2023-05-10T17:25:43.437Z,1.79
2023-05-10T17:28:28.006Z,1.45
2023-05-10T17:31:07.689Z,1.57
2023-05-10T17:33:47.016Z,1.52
2023-05-10T17:36:26.671Z,1.21
2023-05-10T17:39:05.965Z,1.42
2023-05-10T17:41:45.285Z,1.43
2023-05-10T17:44:29.691Z,1.38
2023-05-10T17:47:08.976Z,1.41
2023-05-10T17:49:48.275Z,1.33
2023-05-10T17:52:27.529Z,1.20
2023-05-10T17:55:07.103Z,1.32
2023-05-10T17:57:46.454Z,1.30
2023-05-10T18:00:31.065Z,1.36
2023-05-10T18:03:10.602Z,1.52
2023-05-10T18:05:50.119Z,1.42
2023-05-10T18:08:31.675Z,1.31
2023-05-10T18:11:10.962Z,1.46
2023-05-10T18:13:50.273Z,1.41
2023-05-10T18:16:34.665Z,1.39
2023-05-10T18:19:13.970Z,1.50
2023-05-10T18:21:53.262Z,1.47
2023-05-10T18:27:16.291Z,1.48
2023-05-10T18:29:55.581Z,1.65
2023-05-10T18:32:40.791Z,1.51
2023-05-10T18:35:20.499Z,1.37
2023-05-10T18:38:00.377Z,1.55
2023-05-10T18:40:39.892Z,1.50
2023-05-10T18:43:19.208Z,1.52
2023-05-10T18:45:58.580Z,1.43
2023-05-10T18:48:42.958Z,1.66
2023-05-10T18:51:23.395Z,1.54
2023-05-10T18:54:02.699Z,1.63
2023-05-10T18:56:45.675Z,1.56
2023-05-10T18:59:24.981Z,1.53
2023-05-10T19:02:04.300Z,1.44
2023-05-10T19:04:49.323Z,1.55
2023-05-10T19:07:28.635Z,2.00
2023-05-10T19:10:07.916Z,2.14
2023-05-10T19:12:47.713Z,2.02
2023-05-10T19:15:27.324Z,1.71
2023-05-10T19:18:07.995Z,1.95
2023-05-10T19:20:52.701Z,1.85
2023-05-10T19:23:32.167Z,1.86
2023-05-10T19:26:12.336Z,1.54
2023-05-10T19:28:51.943Z,1.61
2023-05-10T19:31:31.678Z,1.59
2023-05-10T19:34:11.076Z,1.70
2023-05-10T19:36:56.179Z,1.72
2023-05-10T19:39:35.492Z,1.70
2023-05-10T19:42:14.770Z,1.52
2023-05-10T19:44:54.116Z,1.70
2023-05-10T19:47:33.941Z,1.59
2023-05-10T19:50:17.446Z,1.70
2023-05-10T19:53:01.973Z,1.80
2023-05-10T19:55:41.547Z,1.83
2023-05-10T19:58:20.936Z,1.74
2023-05-10T20:01:00.304Z,1.82
2023-05-10T20:03:41.795Z,1.71
2023-05-10T20:06:21.135Z,1.89
2023-05-10T20:09:06.814Z,2.06
2023-05-10T20:11:46.110Z,1.98
2023-05-10T20:14:25.426Z,2.08
2023-05-10T20:17:04.930Z,2.05
2023-05-10T20:19:44.451Z,1.96
2023-05-10T20:22:23.746Z,1.77
2023-05-10T20:25:08.132Z,2.00
2023-05-10T20:27:47.726Z,1.88
2023-05-10T20:30:29.105Z,1.75
2023-05-10T20:33:09.576Z,1.77
2023-05-10T20:35:49.316Z,1.90
2023-05-10T20:38:28.627Z,1.99
2023-05-10T20:41:13.406Z,2.11
2023-05-10T20:43:52.749Z,2.11
2023-05-10T20:46:32.225Z,2.01
2023-05-10T20:49:11.551Z,2.05
2023-05-10T20:51:50.952Z,2.09
2023-05-10T20:54:30.695Z,2.06
2023-05-10T20:57:15.689Z,2.36
2023-05-10T20:59:56.568Z,1.94
2023-05-10T21:02:35.919Z,1.90
2023-05-10T21:05:15.879Z,1.96
2023-05-10T21:07:55.758Z,1.95
2023-05-10T21:10:35.147Z,2.08
2023-05-10T21:13:19.577Z,2.05
2023-05-10T21:15:58.928Z,2.06
2023-05-10T21:18:38.285Z,2.26
2023-05-10T21:21:17.612Z,2.21
2023-05-10T21:23:56.937Z,2.09
2023-05-10T21:26:36.281Z,2.13
2023-05-10T21:29:20.606Z,1.95
2023-05-10T21:31:59.995Z,2.05
2023-05-10T21:34:39.299Z,2.21
2023-05-10T21:37:18.662Z,1.94
2023-05-10T21:39:57.993Z,1.91
2023-05-10T21:42:37.912Z,2.26
2023-05-10T21:45:22.562Z,2.38
2023-05-10T21:48:01.937Z,2.28
2023-05-10T21:50:41.289Z,2.50
2023-05-10T21:53:20.792Z,2.26
2023-05-10T21:56:00.141Z,2.02
2023-05-10T21:58:39.465Z,1.97
2023-05-10T22:01:23.922Z,1.92
2023-05-10T22:04:03.306Z,2.09
2023-05-10T22:06:42.850Z,2.16
2023-05-10T22:09:22.147Z,2.12
2023-05-10T22:12:01.561Z,2.20
2023-05-10T22:14:40.921Z,2.24
2023-05-10T22:17:25.514Z,2.03
2023-05-10T22:20:04.983Z,1.94
2023-05-10T22:22:44.246Z,2.20
2023-05-10T22:25:23.602Z,2.08
2023-05-10T22:28:03.015Z,2.27
2023-05-10T22:30:42.927Z,2.16
2023-05-10T22:33:27.451Z,2.24
2023-05-10T22:36:06.813Z,2.27
2023-05-10T22:38:46.087Z,2.26
2023-05-10T22:41:25.493Z,2.09
2023-05-10T22:44:06.156Z,2.17
2023-05-10T22:46:45.971Z,2.12
2023-05-10T22:49:30.402Z,2.27
2023-05-10T22:52:09.867Z,2.25
2023-05-10T22:54:49.275Z,2.30
2023-05-10T22:57:28.704Z,2.30
2023-05-10T23:00:08.065Z,2.16
2023-05-10T23:02:47.530Z,2.52
2023-05-10T23:05:31.923Z,2.33
2023-05-10T23:08:11.377Z,2.32
2023-05-10T23:10:50.992Z,2.10
2023-05-10T23:13:30.459Z,2.31
2023-05-10T23:16:12.961Z,2.28
2023-05-10T23:18:52.339Z,2.31
2023-05-10T23:21:36.785Z,2.22
2023-05-10T23:24:16.249Z,2.18
2023-05-10T23:26:55.592Z,2.20
2023-05-10T23:29:35.920Z,2.33
2023-05-10T23:32:15.290Z,2.28
2023-05-10T23:34:54.589Z,2.42
2023-05-10T23:37:38.984Z,2.30
2023-05-10T23:40:19.059Z,2.28
2023-05-10T23:42:58.685Z,2.40
2023-05-10T23:45:38.049Z,2.40
2023-05-10T23:48:17.446Z,2.28
2023-05-10T23:50:57.224Z,2.41
2023-05-10T23:53:41.811Z,2.32
2023-05-10T23:56:21.118Z,1.94
2023-05-10T23:59:00.449Z,2.22
